createdAt,value
2023-03-26T00:01:41.667Z,13.00
2023-03-26T00:04:09.221Z,13.00
2023-03-26T00:06:39.960Z,13.00
2023-03-26T00:09:13.560Z,12.90
2023-03-26T00:11:40.753Z,12.90
2023-03-26T00:14:09.567Z,12.80
2023-03-26T00:16:36.726Z,12.80
2023-03-26T00:19:04.129Z,12.90
2023-03-26T00:21:31.686Z,12.80
2023-03-26T00:24:04.733Z,12.70
2023-03-26T00:26:37.691Z,12.60
2023-03-26T00:29:05.449Z,12.60
2023-03-26T00:31:33.387Z,12.60
2023-03-26T00:34:03.299Z,12.60
2023-03-26T00:36:30.431Z,12.60
2023-03-26T00:38:57.559Z,12.50
2023-03-26T00:41:27.116Z,12.40
2023-03-26T00:43:57.954Z,12.50
2023-03-26T00:46:27.440Z,12.50
2023-03-26T00:48:54.627Z,12.60
2023-03-26T00:51:22.029Z,12.60
2023-03-26T00:53:50.661Z,12.70
2023-03-26T00:56:18.110Z,12.80
2023-03-26T00:58:46.237Z,12.80
2023-03-26T01:01:16.367Z,12.70
2023-03-26T01:03:57.092Z,12.60
2023-03-26T01:06:36.197Z,12.50
2023-03-26T01:09:17.058Z,12.40
2023-03-26T01:11:44.945Z,12.30
2023-03-26T01:14:23.721Z,12.30
2023-03-26T01:17:01.529Z,12.30
2023-03-26T01:19:57.597Z,12.40
2023-03-26T01:22:26.602Z,12.50
2023-03-26T01:24:56.711Z,12.20
2023-03-26T01:27:28.045Z,12.20
2023-03-26T01:30:01.913Z,12.20
2023-03-26T01:32:37.873Z,12.30
2023-03-26T01:35:41.553Z,12.40
2023-03-26T01:38:14.310Z,12.30
2023-03-26T01:41:04.654Z,12.10
2023-03-26T01:43:51.496Z,11.80
2023-03-26T01:46:19.838Z,11.70
2023-03-26T01:48:48.069Z,11.40
2023-03-26T01:51:27.792Z,11.40
2023-03-26T01:53:55.718Z,11.40
2023-03-26T01:56:57.317Z,11.50
2023-03-26T01:59:36.100Z,11.50
2023-03-26T02:02:12.693Z,11.60
2023-03-26T02:05:09.662Z,11.60
2023-03-26T02:07:56.117Z,11.60
2023-03-26T02:10:28.017Z,11.60
2023-03-26T02:12:55.879Z,11.80
2023-03-26T02:15:23.490Z,12.00
2023-03-26T02:17:52.415Z,12.10
2023-03-26T02:20:20.661Z,12.10
2023-03-26T02:22:48.159Z,12.10
2023-03-26T02:25:20.221Z,12.20
2023-03-26T02:27:50.031Z,12.20
2023-03-26T02:30:25.704Z,12.30
2023-03-26T02:32:59.282Z,12.30
2023-03-26T02:35:30.902Z,12.30
2023-03-26T02:38:00.636Z,12.30
2023-03-26T02:40:28.134Z,12.20
2023-03-26T02:42:56.073Z,12.10
2023-03-26T02:45:23.847Z,11.90
2023-03-26T02:48:09.558Z,11.70
2023-03-26T02:50:43.015Z,11.40
2023-03-26T02:53:31.007Z,11.40
2023-03-26T02:56:29.097Z,11.30
2023-03-26T02:59:16.312Z,11.30
2023-03-26T03:01:46.606Z,11.20
2023-03-26T03:04:17.983Z,11.20
2023-03-26T03:06:46.387Z,11.10
2023-03-26T03:09:15.760Z,11.10
2023-03-26T03:11:42.713Z,11.00
2023-03-26T03:14:10.018Z,11.00
2023-03-26T03:16:38.193Z,11.00
2023-03-26T03:19:12.784Z,10.90
2023-03-26T03:21:41.453Z,10.90
2023-03-26T03:24:09.687Z,10.80
2023-03-26T03:26:42.320Z,10.80
2023-03-26T03:29:21.297Z,11.00
2023-03-26T03:31:50.968Z,11.00
2023-03-26T03:34:38.812Z,11.00
2023-03-26T03:37:07.417Z,11.20
2023-03-26T03:39:50.054Z,11.20
2023-03-26T03:42:21.359Z,11.20
2023-03-26T03:44:50.869Z,11.10
2023-03-26T03:47:43.938Z,11.10
2023-03-26T03:50:11.988Z,11.10
2023-03-26T03:52:48.494Z,11.20
2023-03-26T03:55:17.503Z,11.20
2023-03-26T03:57:49.701Z,11.00
2023-03-26T04:00:21.145Z,10.80
2023-03-26T04:03:06.152Z,10.80
2023-03-26T04:05:34.021Z,10.70
2023-03-26T04:08:01.009Z,10.80
2023-03-26T04:10:51.219Z,10.60
2023-03-26T04:13:37.141Z,10.50
2023-03-26T04:16:19.027Z,10.40
2023-03-26T04:18:49.207Z,10.50
2023-03-26T04:21:16.149Z,10.50
2023-03-26T04:23:45.278Z,10.50
2023-03-26T04:26:38.245Z,10.50
2023-03-26T04:29:12.896Z,10.50
2023-03-26T04:31:39.892Z,10.50
2023-03-26T04:34:14.217Z,10.80
2023-03-26T04:36:56.594Z,10.80
2023-03-26T04:39:30.432Z,10.80
2023-03-26T04:42:19.928Z,10.80
2023-03-26T04:45:03.261Z,10.80
2023-03-26T04:47:31.647Z,10.90
2023-03-26T04:49:58.659Z,10.80
2023-03-26T04:52:25.695Z,10.90
2023-03-26T04:56:18.172Z,10.90
2023-03-26T04:59:04.209Z,11.00
2023-03-26T05:01:38.111Z,11.10
2023-03-26T05:04:06.539Z,11.20
2023-03-26T05:06:34.565Z,11.20
2023-03-26T05:09:08.547Z,11.30
2023-03-26T05:12:01.828Z,11.20
2023-03-26T05:14:31.426Z,11.20
2023-03-26T05:16:59.291Z,11.20
2023-03-26T05:19:26.377Z,11.20
2023-03-26T05:21:53.551Z,11.30
2023-03-26T05:24:20.876Z,11.30
2023-03-26T05:26:47.901Z,11.20
2023-03-26T05:29:17.589Z,11.20
2023-03-26T05:31:48.715Z,11.10
2023-03-26T05:34:16.160Z,11.10
2023-03-26T05:36:44.063Z,11.10
2023-03-26T05:39:35.647Z,11.10
2023-03-26T05:42:21.748Z,11.20
2023-03-26T05:45:02.039Z,11.30
2023-03-26T05:47:32.142Z,11.20
2023-03-26T05:49:59.372Z,11.10
2023-03-26T05:52:26.856Z,11.20
2023-03-26T05:55:20.272Z,11.20
2023-03-26T05:58:06.183Z,11.20
2023-03-26T06:01:06.005Z,11.20
2023-03-26T06:03:53.098Z,11.10
2023-03-26T06:06:21.764Z,11.20
2023-03-26T06:09:01.523Z,11.40
2023-03-26T06:11:30.058Z,11.50
2023-03-26T06:13:56.927Z,11.50
2023-03-26T06:16:26.149Z,11.50
2023-03-26T06:19:11.356Z,11.50
2023-03-26T06:21:58.690Z,11.50
2023-03-26T06:24:33.639Z,11.70
2023-03-26T06:27:23.083Z,11.80
2023-03-26T06:30:22.216Z,12.00
2023-03-26T06:32:59.966Z,12.10
2023-03-26T06:35:31.687Z,12.20
2023-03-26T06:37:59.395Z,12.30
2023-03-26T06:40:27.597Z,12.40
2023-03-26T06:43:14.903Z,12.40
2023-03-26T06:45:56.406Z,12.70
2023-03-26T06:48:49.824Z,12.80
2023-03-26T06:51:35.481Z,13.00
2023-03-26T06:54:08.884Z,13.30
2023-03-26T06:56:47.702Z,13.40
2023-03-26T06:59:32.955Z,13.40
2023-03-26T07:02:18.574Z,13.50
2023-03-26T07:05:04.160Z,13.80
2023-03-26T07:07:49.716Z,13.90
2023-03-26T07:10:19.333Z,14.10
2023-03-26T07:12:57.409Z,14.30
2023-03-26T07:15:44.601Z,14.40
2023-03-26T07:18:34.423Z,14.50
2023-03-26T07:21:04.039Z,14.70
2023-03-26T07:23:33.176Z,14.70
2023-03-26T07:26:33.098Z,14.90
2023-03-26T07:29:17.540Z,15.00
2023-03-26T07:32:18.449Z,15.20
2023-03-26T07:34:59.239Z,15.30
2023-03-26T07:38:12.465Z,15.50
2023-03-26T07:41:33.231Z,15.60
2023-03-26T07:44:41.708Z,15.50
2023-03-26T07:47:32.599Z,15.60
2023-03-26T07:50:21.573Z,15.70
2023-03-26T07:53:07.178Z,15.80
2023-03-26T07:56:02.006Z,15.70
2023-03-26T07:59:17.028Z,15.80
2023-03-26T08:02:27.376Z,15.60
2023-03-26T08:05:26.315Z,15.60
2023-03-26T08:07:56.765Z,15.40
2023-03-26T08:10:39.136Z,15.60
2023-03-26T08:13:06.700Z,15.80
2023-03-26T08:15:50.404Z,15.80
2023-03-26T08:18:27.403Z,15.90
2023-03-26T08:20:58.306Z,16.00
2023-03-26T08:23:50.550Z,16.20
2023-03-26T08:26:44.143Z,16.50
2023-03-26T08:29:33.577Z,16.60
2023-03-26T08:32:06.961Z,16.60
2023-03-26T08:34:35.418Z,16.60
2023-03-26T08:37:02.544Z,16.40
2023-03-26T08:39:29.567Z,16.60
2023-03-26T08:42:33.758Z,16.60
2023-03-26T08:45:16.005Z,16.60
2023-03-26T08:47:55.692Z,16.60
2023-03-26T08:50:44.592Z,16.60
2023-03-26T08:53:43.482Z,16.70
2023-03-26T08:56:38.512Z,16.80
2023-03-26T08:59:46.954Z,17.20
2023-03-26T09:02:44.137Z,17.30
2023-03-26T09:05:54.759Z,17.60
2023-03-26T09:09:00.799Z,17.70
2023-03-26T09:11:45.904Z,17.90
2023-03-26T09:14:34.284Z,18.20
2023-03-26T09:17:19.706Z,18.20
2023-03-26T09:20:01.781Z,18.40
2023-03-26T09:22:50.089Z,18.60
2023-03-26T09:25:32.617Z,18.80
2023-03-26T09:28:22.092Z,18.70
2023-03-26T09:31:13.116Z,18.50
2023-03-26T09:34:27.730Z,18.50
2023-03-26T09:37:56.105Z,18.30
2023-03-26T09:40:37.013Z,18.20
2023-03-26T09:43:38.213Z,18.20
2023-03-26T09:46:21.784Z,18.20
2023-03-26T09:49:27.117Z,18.40
2023-03-26T09:52:11.917Z,18.70
2023-03-26T09:55:20.234Z,18.80
2023-03-26T09:58:20.493Z,18.80
2023-03-26T10:00:47.540Z,18.80
2023-03-26T10:03:38.321Z,18.70
2023-03-26T10:06:37.434Z,18.80
2023-03-26T10:09:25.670Z,18.60
2023-03-26T10:12:06.510Z,18.40
2023-03-26T10:15:04.453Z,18.10
2023-03-26T10:17:41.317Z,17.90
2023-03-26T10:20:31.053Z,18.10
2023-03-26T10:23:16.886Z,18.20
2023-03-26T10:25:51.712Z,18.40
2023-03-26T10:28:31.643Z,18.20
2023-03-26T10:31:38.373Z,18.10
2023-03-26T10:34:28.517Z,18.10
2023-03-26T10:37:01.087Z,18.10
2023-03-26T10:39:43.694Z,18.20
2023-03-26T10:42:44.551Z,18.10
2023-03-26T10:45:38.718Z,18.00
2023-03-26T10:48:11.991Z,17.90
2023-03-26T10:51:17.749Z,17.80
2023-03-26T10:54:21.430Z,17.60
2023-03-26T10:56:51.133Z,17.60
2023-03-26T10:59:19.409Z,17.70
2023-03-26T11:02:00.532Z,17.90
2023-03-26T11:04:46.421Z,18.40
2023-03-26T11:07:22.821Z,18.80
2023-03-26T11:10:11.940Z,19.10
2023-03-26T11:12:50.807Z,19.70
2023-03-26T11:15:23.549Z,20.10
2023-03-26T11:18:29.088Z,20.40
2023-03-26T11:21:25.037Z,20.50
2023-03-26T11:24:05.202Z,20.60
2023-03-26T11:26:45.727Z,20.90
2023-03-26T11:29:31.452Z,20.90
2023-03-26T11:32:02.836Z,21.00
2023-03-26T11:34:50.430Z,20.90
2023-03-26T11:37:26.771Z,20.80
2023-03-26T11:39:59.528Z,20.60
2023-03-26T11:42:29.824Z,20.60
2023-03-26T11:45:02.098Z,20.60
2023-03-26T11:47:53.718Z,20.90
2023-03-26T11:50:27.334Z,20.90
2023-03-26T11:53:03.308Z,21.20
2023-03-26T11:55:32.034Z,21.20
2023-03-26T11:58:01.319Z,20.80
2023-03-26T12:00:29.710Z,20.70
2023-03-26T12:02:59.034Z,20.60
2023-03-26T12:05:33.708Z,20.40
2023-03-26T12:08:19.762Z,20.20
2023-03-26T12:11:01.289Z,20.20
2023-03-26T12:13:39.287Z,20.30
2023-03-26T12:16:17.310Z,20.40
2023-03-26T12:18:46.607Z,20.60
2023-03-26T12:21:19.271Z,20.70
2023-03-26T12:24:01.283Z,20.70
2023-03-26T12:26:49.011Z,20.40
2023-03-26T12:29:18.876Z,20.40
2023-03-26T12:31:46.033Z,20.30
2023-03-26T12:34:22.295Z,20.20
2023-03-26T12:36:55.454Z,20.00
2023-03-26T12:40:08.049Z,19.80
2023-03-26T12:44:55.849Z,19.60
2023-03-26T12:45:23.948Z,19.40
2023-03-26T12:47:59.946Z,19.30
2023-03-26T12:50:41.529Z,19.20
2023-03-26T12:53:37.755Z,19.00
2023-03-26T12:56:21.607Z,18.90
2023-03-26T12:58:55.380Z,18.60
2023-03-26T13:01:34.452Z,18.50
2023-03-26T13:04:19.824Z,18.40
2023-03-26T13:07:01.391Z,18.50
2023-03-26T13:09:35.742Z,18.40
2023-03-26T13:12:35.672Z,18.20
2023-03-26T13:15:26.709Z,18.20
2023-03-26T13:18:12.348Z,18.10
2023-03-26T13:20:55.701Z,18.00
2023-03-26T13:23:26.803Z,17.90
2023-03-26T13:26:29.500Z,17.80
2023-03-26T13:29:14.595Z,17.80
2023-03-26T13:31:56.932Z,17.60
2023-03-26T13:34:29.966Z,17.60
2023-03-26T13:37:22.701Z,17.50
2023-03-26T13:39:58.610Z,17.50
2023-03-26T13:42:52.437Z,17.50
2023-03-26T13:45:40.885Z,17.40
2023-03-26T15:06:53.311Z,16.00
2023-03-26T15:09:50.287Z,15.90
2023-03-26T15:12:53.829Z,15.80
2023-03-26T15:15:54.052Z,15.80
2023-03-26T15:18:55.109Z,15.80
2023-03-26T15:22:00.322Z,15.50
2023-03-26T15:24:32.048Z,15.30
2023-03-26T15:27:34.217Z,15.20
2023-03-26T15:30:20.145Z,15.30
2023-03-26T15:33:12.777Z,15.30
2023-03-26T15:39:07.260Z,15.30
2023-03-26T15:44:40.943Z,15.30
2023-03-26T15:47:51.073Z,15.20
2023-03-26T15:50:41.674Z,15.30
2023-03-26T15:53:22.136Z,15.20
2023-03-26T16:04:50.368Z,15.00
2023-03-26T16:10:57.428Z,14.90
2023-03-26T16:13:47.445Z,14.90
2023-03-26T16:21:55.365Z,14.80
2023-03-26T17:11:21.088Z,13.90
2023-03-26T17:45:35.358Z,13.30
2023-03-26T19:55:59.638Z,12.60
2023-03-26T20:40:56.062Z,12.50
